createdAt,value
2022-08-12T00:00:40.879Z,22.89
2022-08-12T00:02:03.916Z,22.85
2022-08-12T00:02:41.190Z,22.79
2022-08-12T00:03:40.950Z,22.79
2022-08-12T00:04:40.858Z,22.81
2022-08-12T00:05:57.101Z,22.81
2022-08-12T00:06:40.849Z,22.82
2022-08-12T00:07:40.843Z,22.69
2022-08-12T00:08:40.839Z,22.70
2022-08-12T00:09:40.831Z,22.75
2022-08-12T00:10:40.839Z,22.69
2022-08-12T00:11:40.822Z,22.67
2022-08-12T00:12:41.057Z,22.72
2022-08-12T00:13:40.812Z,22.67
2022-08-12T00:14:40.809Z,22.69
2022-08-12T00:15:40.801Z,22.67
2022-08-12T00:16:40.798Z,22.69
2022-08-12T00:17:40.792Z,22.69
2022-08-12T00:18:40.789Z,22.63
2022-08-12T00:19:40.781Z,22.66
2022-08-12T00:20:40.778Z,22.66
2022-08-12T00:21:40.772Z,22.67
2022-08-12T00:22:40.891Z,22.61
2022-08-12T00:23:40.761Z,22.61
2022-08-12T00:24:40.758Z,22.61
2022-08-12T00:26:00.521Z,22.59
2022-08-12T00:26:40.746Z,22.60
2022-08-12T00:27:44.047Z,22.57
2022-08-12T00:28:40.737Z,22.59
2022-08-12T00:29:43.614Z,22.49
2022-08-12T00:30:40.727Z,22.57
2022-08-12T00:31:40.721Z,22.51
2022-08-12T00:32:40.718Z,22.52
2022-08-12T00:33:51.738Z,22.54
2022-08-12T00:34:40.706Z,22.46
2022-08-12T00:35:40.701Z,22.51
2022-08-12T00:36:40.696Z,22.46
2022-08-12T00:37:40.706Z,22.48
2022-08-12T00:38:40.685Z,22.49
2022-08-12T00:39:40.741Z,22.48
2022-08-12T00:40:40.675Z,22.45
2022-08-12T00:41:40.667Z,22.45
2022-08-12T00:42:41.071Z,22.48
2022-08-12T00:43:40.670Z,22.46
2022-08-12T00:44:40.652Z,22.46
2022-08-12T00:45:40.647Z,22.42
2022-08-12T00:46:40.643Z,22.45
2022-08-12T00:47:40.634Z,22.39
2022-08-12T00:48:40.632Z,22.33
2022-08-12T00:49:40.625Z,22.33
2022-08-12T00:50:40.620Z,22.38
2022-08-12T00:51:40.615Z,22.31
2022-08-12T00:52:40.852Z,22.31
2022-08-12T00:53:40.603Z,22.26
2022-08-12T00:54:40.598Z,22.27
2022-08-12T00:55:40.591Z,22.19
2022-08-12T00:56:40.590Z,22.23
2022-08-12T00:57:40.582Z,22.23
2022-08-12T00:58:40.577Z,22.19
2022-08-12T00:59:40.571Z,22.17
2022-08-12T01:00:40.567Z,22.17
2022-08-12T01:02:02.481Z,22.19
2022-08-12T01:02:40.855Z,22.09
2022-08-12T01:03:40.548Z,22.08
2022-08-12T01:04:40.545Z,22.05
2022-08-12T01:05:40.538Z,22.06
2022-08-12T01:06:40.534Z,21.99
2022-08-12T01:07:40.527Z,22.05
2022-08-12T01:08:40.521Z,21.94
2022-08-12T01:09:40.514Z,21.89
2022-08-12T01:10:40.512Z,21.93
2022-08-12T01:11:40.504Z,22.06
2022-08-12T01:12:40.819Z,21.89
2022-08-12T01:13:40.492Z,22.02
2022-08-12T01:14:40.488Z,21.98
2022-08-12T01:15:40.481Z,21.98
2022-08-12T01:16:40.479Z,21.96
2022-08-12T01:17:40.471Z,22.01
2022-08-12T01:18:40.467Z,22.02
2022-08-12T01:19:40.459Z,21.94
2022-08-12T01:20:40.456Z,21.86
2022-08-12T01:21:40.448Z,21.86
2022-08-12T01:22:40.653Z,21.91
2022-08-12T01:23:40.537Z,21.86
2022-08-12T01:24:40.433Z,21.85
2022-08-12T01:25:41.578Z,21.83
2022-08-12T01:26:40.436Z,21.77
2022-08-12T01:27:40.414Z,21.81
2022-08-12T01:28:40.411Z,21.74
2022-08-12T01:29:40.405Z,21.75
2022-08-12T01:30:40.402Z,21.73
2022-08-12T01:31:40.396Z,21.74
2022-08-12T01:32:40.573Z,21.70
2022-08-12T01:33:40.380Z,21.66
2022-08-12T01:34:40.376Z,21.74
2022-08-12T01:35:40.369Z,21.68
2022-08-12T01:36:40.365Z,21.67
2022-08-12T01:37:40.358Z,21.59
2022-08-12T01:38:40.359Z,21.66
2022-08-12T01:40:34.040Z,21.58
2022-08-12T01:40:44.995Z,21.56
2022-08-12T01:41:40.333Z,21.58
2022-08-12T01:42:40.561Z,21.55
2022-08-12T01:43:40.322Z,21.49
2022-08-12T01:44:40.319Z,21.49
2022-08-12T01:45:43.283Z,21.37
2022-08-12T01:46:40.307Z,21.48
2022-08-12T01:47:40.298Z,21.40
2022-08-12T01:48:40.295Z,21.42
2022-08-12T01:49:40.289Z,21.48
2022-08-12T01:50:40.282Z,21.38
2022-08-12T01:52:15.209Z,21.46
2022-08-12T01:52:40.551Z,21.42
2022-08-12T01:53:50.126Z,21.38
2022-08-12T01:54:40.261Z,21.34
2022-08-12T01:55:40.253Z,21.34
2022-08-12T01:56:40.249Z,21.34
2022-08-12T01:57:58.228Z,21.36
2022-08-12T01:58:40.238Z,21.42
2022-08-12T01:59:40.228Z,21.40
2022-08-12T02:00:44.864Z,21.43
2022-08-12T02:01:40.399Z,21.40
2022-08-12T02:02:40.344Z,21.37
2022-08-12T02:03:40.217Z,21.31
2022-08-12T02:04:40.207Z,21.22
2022-08-12T02:05:40.194Z,21.27
2022-08-12T02:06:40.188Z,21.27
2022-08-12T02:07:40.182Z,21.21
2022-08-12T02:08:40.177Z,21.18
2022-08-12T02:09:40.169Z,21.13
2022-08-12T02:10:51.030Z,21.12
2022-08-12T02:11:40.157Z,21.06
2022-08-12T02:12:40.351Z,21.06
2022-08-12T02:13:49.121Z,20.96
2022-08-12T02:14:40.144Z,21.00
2022-08-12T02:15:40.134Z,21.01
2022-08-12T02:16:40.130Z,20.98
2022-08-12T02:17:55.437Z,21.00
2022-08-12T02:18:40.118Z,20.96
2022-08-12T02:19:40.112Z,21.00
2022-08-12T02:20:52.403Z,21.01
2022-08-12T02:21:40.097Z,21.00
2022-08-12T02:22:40.292Z,21.00
2022-08-12T02:23:40.086Z,21.01
2022-08-12T02:24:40.083Z,21.00
2022-08-12T02:25:40.073Z,20.98
2022-08-12T02:26:40.069Z,20.97
2022-08-12T02:27:40.060Z,20.98
2022-08-12T02:28:40.057Z,21.00
2022-08-12T02:29:40.048Z,20.96
2022-08-12T02:30:41.815Z,21.00
2022-08-12T02:31:40.037Z,20.97
2022-08-12T02:32:40.170Z,20.93
2022-08-12T02:33:40.026Z,20.91
2022-08-12T02:34:40.074Z,20.94
2022-08-12T02:35:40.043Z,20.93
2022-08-12T02:36:40.007Z,20.91
2022-08-12T02:37:39.999Z,20.91
2022-08-12T02:38:39.996Z,20.91
2022-08-12T02:39:40.054Z,20.91
2022-08-12T02:40:39.982Z,20.87
2022-08-12T02:41:39.988Z,20.96
2022-08-12T02:42:40.216Z,20.91
2022-08-12T02:43:39.961Z,20.91
2022-08-12T02:44:39.959Z,20.91
2022-08-12T02:45:39.949Z,20.82
2022-08-12T02:46:39.943Z,20.90
2022-08-12T02:47:58.720Z,20.87
2022-08-12T02:48:39.932Z,20.91
2022-08-12T02:49:39.977Z,20.82
2022-08-12T02:50:39.919Z,20.87
2022-08-12T02:51:39.909Z,20.88
2022-08-12T02:52:40.081Z,20.90
2022-08-12T02:53:39.897Z,20.82
2022-08-12T02:54:39.893Z,20.76
2022-08-12T02:55:39.989Z,20.76
2022-08-12T02:56:39.878Z,20.85
2022-08-12T02:57:39.875Z,20.75
2022-08-12T02:58:41.252Z,20.76
2022-08-12T02:59:39.860Z,20.75
2022-08-12T03:00:39.951Z,20.76
2022-08-12T03:01:47.704Z,20.83
2022-08-12T03:02:40.080Z,20.72
2022-08-12T03:03:39.839Z,20.66
2022-08-12T03:04:43.603Z,20.72
2022-08-12T03:05:44.401Z,20.71
2022-08-12T03:06:39.816Z,20.63
2022-08-12T03:07:56.265Z,20.63
2022-08-12T03:08:39.802Z,20.68
2022-08-12T03:09:56.736Z,20.66
2022-08-12T03:10:39.818Z,20.68
2022-08-12T03:11:42.307Z,20.63
2022-08-12T03:12:40.078Z,20.69
2022-08-12T03:13:39.773Z,20.64
2022-08-12T03:14:39.763Z,20.60
2022-08-12T03:15:39.761Z,20.64
2022-08-12T03:16:39.752Z,20.57
2022-08-12T03:17:39.747Z,20.60
2022-08-12T03:18:39.737Z,20.66
2022-08-12T03:20:10.488Z,20.61
2022-08-12T03:20:39.726Z,20.57
2022-08-12T03:21:52.948Z,20.46
2022-08-12T03:22:39.843Z,20.46
2022-08-12T03:23:39.708Z,20.58
2022-08-12T03:24:39.699Z,20.68
2022-08-12T03:25:39.697Z,20.64
2022-08-12T03:26:39.687Z,20.58
2022-08-12T03:27:39.683Z,20.58
2022-08-12T03:28:39.676Z,20.57
2022-08-12T03:29:49.758Z,20.60
2022-08-12T03:30:39.662Z,20.50
2022-08-12T03:31:39.660Z,20.61
2022-08-12T03:32:39.651Z,20.50
2022-08-12T03:33:39.647Z,20.48
2022-08-12T03:34:39.639Z,20.50
2022-08-12T03:35:41.403Z,20.50
2022-08-12T03:36:39.626Z,20.51
2022-08-12T03:37:39.622Z,20.41
2022-08-12T03:38:39.612Z,20.35
2022-08-12T03:39:39.669Z,20.33
2022-08-12T03:40:39.601Z,20.33
2022-08-12T03:41:39.597Z,20.25
2022-08-12T03:42:39.702Z,20.33
2022-08-12T03:43:39.584Z,20.33
2022-08-12T03:44:39.576Z,20.30
2022-08-12T03:45:52.129Z,20.30
2022-08-12T03:46:39.562Z,20.22
2022-08-12T03:47:39.559Z,20.17
2022-08-12T03:48:39.556Z,20.23
2022-08-12T03:49:39.545Z,20.19
2022-08-12T03:50:39.535Z,20.20
2022-08-12T03:51:39.531Z,20.19
2022-08-12T03:52:39.681Z,20.20
2022-08-12T03:53:39.521Z,20.19
2022-08-12T03:54:42.619Z,20.22
2022-08-12T03:55:39.507Z,20.16
2022-08-12T03:56:39.549Z,20.16
2022-08-12T03:57:39.494Z,20.17
2022-08-12T03:58:39.486Z,20.08
2022-08-12T03:59:39.482Z,20.13
2022-08-12T04:00:39.521Z,20.17
2022-08-12T04:01:40.669Z,20.16
2022-08-12T04:02:39.652Z,20.16
2022-08-12T04:03:39.457Z,20.10
2022-08-12T04:04:39.447Z,20.22
2022-08-12T04:05:55.442Z,20.19
2022-08-12T04:06:39.553Z,20.26
2022-08-12T04:07:39.430Z,20.19
2022-08-12T04:08:39.420Z,20.25
2022-08-12T04:09:39.419Z,20.16
2022-08-12T04:10:39.407Z,20.20
2022-08-12T04:11:47.235Z,20.25
2022-08-12T04:12:39.396Z,20.19
2022-08-12T04:13:39.392Z,20.20
2022-08-12T04:14:39.383Z,20.19
2022-08-12T04:15:39.381Z,20.20
2022-08-12T04:16:39.372Z,20.15
2022-08-12T04:17:39.368Z,20.19
2022-08-12T04:18:39.356Z,20.10
2022-08-12T04:19:39.353Z,20.01
2022-08-12T04:20:39.344Z,20.08
2022-08-12T04:21:44.002Z,20.12
2022-08-12T04:22:39.511Z,20.13
2022-08-12T04:23:39.328Z,19.98
2022-08-12T04:24:40.876Z,19.98
2022-08-12T04:25:39.314Z,20.05
2022-08-12T04:26:39.304Z,20.00
2022-08-12T04:27:39.300Z,19.98
2022-08-12T04:28:39.293Z,19.97
2022-08-12T04:30:21.145Z,19.87
2022-08-12T04:30:39.275Z,19.94
2022-08-12T04:31:39.280Z,19.87
2022-08-12T04:32:44.112Z,19.97
2022-08-12T04:33:39.261Z,20.10
2022-08-12T04:34:39.249Z,20.04
2022-08-12T04:35:39.246Z,20.08
2022-08-12T04:36:39.237Z,20.02
2022-08-12T04:37:58.505Z,20.08
2022-08-12T04:38:39.223Z,20.05
2022-08-12T04:39:39.267Z,20.04
2022-08-12T04:40:39.212Z,20.02
2022-08-12T04:41:39.206Z,20.01
2022-08-12T04:42:39.475Z,20.01
2022-08-12T04:44:00.528Z,19.97
2022-08-12T04:44:39.184Z,20.07
2022-08-12T04:45:39.180Z,20.01
2022-08-12T04:46:39.173Z,19.90
2022-08-12T04:47:39.166Z,20.02
2022-08-12T04:48:39.157Z,20.02
2022-08-12T04:49:39.156Z,20.08
2022-08-12T04:50:39.143Z,20.05
2022-08-12T04:51:39.140Z,20.07
2022-08-12T04:52:39.130Z,20.37
2022-08-12T04:53:39.125Z,20.97
2022-08-12T04:54:39.120Z,21.58
2022-08-12T04:55:39.197Z,22.15
2022-08-12T04:56:39.103Z,22.61
2022-08-12T04:57:39.100Z,23.15
2022-08-12T04:58:39.093Z,23.34
2022-08-12T04:59:47.074Z,23.71
2022-08-12T05:00:39.090Z,24.04
2022-08-12T05:01:39.081Z,24.18
2022-08-12T05:02:39.213Z,24.41
2022-08-12T05:03:46.251Z,24.52
2022-08-12T05:04:39.077Z,24.75
2022-08-12T05:05:39.062Z,25.04
2022-08-12T05:06:39.057Z,25.26
2022-08-12T05:07:53.604Z,25.35
2022-08-12T05:08:39.049Z,25.63
2022-08-12T05:09:58.908Z,25.86
2022-08-12T05:10:39.041Z,26.00
2022-08-12T05:11:39.042Z,26.11
2022-08-12T05:12:39.238Z,26.29
2022-08-12T05:13:39.035Z,26.35
2022-08-12T05:14:39.029Z,26.38
2022-08-12T05:16:02.605Z,26.44
2022-08-12T05:16:39.036Z,26.27
2022-08-12T05:17:39.023Z,26.23
2022-08-12T05:18:39.399Z,26.11
2022-08-12T05:19:39.017Z,25.71
2022-08-12T05:20:39.024Z,25.64
2022-08-12T05:21:39.009Z,25.51
2022-08-12T05:22:39.375Z,25.41
2022-08-12T05:23:39.002Z,25.36
2022-08-12T05:24:38.997Z,25.34
2022-08-12T05:25:38.997Z,25.24
2022-08-12T05:26:38.988Z,25.01
2022-08-12T05:27:38.989Z,24.94
2022-08-12T05:28:38.982Z,24.87
2022-08-12T05:30:06.162Z,24.80
2022-08-12T05:30:38.975Z,24.66
2022-08-12T05:31:47.712Z,24.39
2022-08-12T05:32:39.113Z,24.31
2022-08-12T05:33:38.965Z,24.36
2022-08-12T05:34:38.961Z,24.31
2022-08-12T05:35:38.958Z,24.30
2022-08-12T05:36:38.955Z,24.14
2022-08-12T05:37:38.951Z,24.14
2022-08-12T05:38:38.952Z,24.18
2022-08-12T05:39:38.964Z,24.09
2022-08-12T05:40:38.938Z,23.97
2022-08-12T05:41:38.938Z,23.86
2022-08-12T05:42:38.930Z,23.74
2022-08-12T05:43:38.929Z,23.64
2022-08-12T05:44:38.923Z,23.53
2022-08-12T05:45:44.298Z,23.44
2022-08-12T05:46:38.914Z,23.39
2022-08-12T05:47:53.358Z,23.29
2022-08-12T05:48:38.908Z,23.19
2022-08-12T05:49:38.905Z,23.23
2022-08-12T05:50:38.898Z,23.32
2022-08-12T05:51:39.947Z,23.29
2022-08-12T05:52:39.045Z,23.18
2022-08-12T05:53:38.889Z,23.16
2022-08-12T05:54:56.556Z,23.00
2022-08-12T05:55:38.881Z,22.86
2022-08-12T05:56:38.875Z,22.79
2022-08-12T05:57:38.876Z,22.81
2022-08-12T05:58:38.864Z,22.91
2022-08-12T05:59:38.865Z,22.79
2022-08-12T06:00:38.860Z,22.79
2022-08-12T06:02:10.083Z,22.79
2022-08-12T06:02:39.043Z,22.72
2022-08-12T06:03:39.040Z,22.74
2022-08-12T06:04:38.841Z,22.79
2022-08-12T06:05:42.974Z,22.81
2022-08-12T06:06:39.653Z,22.84
2022-08-12T06:07:59.745Z,22.72
2022-08-12T06:08:38.824Z,22.67
2022-08-12T06:09:38.821Z,22.70
2022-08-12T06:10:38.814Z,22.69
2022-08-12T06:11:38.811Z,22.78
2022-08-12T06:12:39.025Z,22.91
2022-08-12T06:13:52.824Z,22.93
2022-08-12T06:14:39.129Z,22.99
2022-08-12T06:15:38.795Z,23.00
2022-08-12T06:16:38.790Z,23.09
2022-08-12T06:17:38.789Z,23.00
2022-08-12T06:18:38.780Z,23.09
2022-08-12T06:20:27.045Z,23.06
2022-08-12T06:20:38.774Z,22.97
2022-08-12T06:21:39.174Z,22.97
2022-08-12T06:22:39.031Z,22.86
2022-08-12T06:23:42.512Z,22.89
2022-08-12T06:24:38.755Z,22.81
2022-08-12T06:25:38.757Z,22.75
2022-08-12T06:26:38.747Z,22.76
2022-08-12T06:27:38.757Z,22.67
2022-08-12T06:28:38.740Z,22.64
2022-08-12T06:30:10.253Z,22.75
2022-08-12T06:30:39.909Z,22.74
2022-08-12T06:31:38.727Z,22.76
2022-08-12T06:32:51.729Z,22.76
2022-08-12T06:33:55.628Z,22.84
2022-08-12T06:35:23.955Z,22.72
2022-08-12T06:35:48.762Z,22.70
2022-08-12T06:36:38.705Z,22.72
2022-08-12T06:37:38.702Z,22.67
2022-08-12T06:38:38.695Z,22.70
2022-08-12T06:39:38.751Z,22.69
2022-08-12T06:40:38.687Z,22.75
2022-08-12T06:41:38.686Z,22.78
2022-08-12T06:42:38.677Z,22.81
2022-08-12T06:44:06.573Z,22.70
2022-08-12T06:44:38.669Z,22.75
2022-08-12T06:45:46.018Z,22.79
2022-08-12T06:46:38.768Z,22.76
2022-08-12T06:47:38.659Z,22.72
2022-08-12T06:48:38.651Z,22.82
2022-08-12T06:49:38.648Z,22.85
2022-08-12T06:50:40.223Z,22.99
2022-08-12T06:51:38.640Z,22.96
2022-08-12T06:52:38.635Z,23.09
2022-08-12T06:53:38.634Z,23.14
2022-08-12T06:54:38.725Z,23.22
2022-08-12T06:55:38.625Z,23.29
2022-08-12T06:58:05.155Z,23.31
2022-08-12T06:58:38.608Z,23.29
2022-08-12T06:59:38.606Z,23.38
2022-08-12T07:00:38.635Z,23.32
2022-08-12T07:01:38.598Z,23.25
2022-08-12T07:02:38.801Z,23.23
2022-08-12T07:03:38.589Z,23.31
2022-08-12T07:04:39.403Z,23.18
2022-08-12T07:05:38.581Z,23.22
2022-08-12T07:06:38.576Z,23.31
2022-08-12T07:07:38.591Z,23.15
2022-08-12T07:08:38.570Z,23.21
2022-08-12T07:10:01.526Z,23.25
2022-08-12T07:10:38.557Z,23.22
2022-08-12T07:11:38.554Z,23.31
2022-08-12T07:12:38.624Z,23.22
2022-08-12T07:14:02.561Z,23.22
2022-08-12T07:14:41.050Z,23.23
2022-08-12T07:15:38.538Z,23.15
2022-08-12T07:16:38.535Z,23.14
2022-08-12T07:17:38.530Z,23.23
2022-08-12T07:18:38.533Z,23.25
2022-08-12T07:19:40.624Z,23.22
2022-08-12T07:20:52.384Z,23.15
2022-08-12T07:21:59.488Z,23.16
2022-08-12T07:22:38.515Z,23.22
2022-08-12T07:23:38.505Z,23.29
2022-08-12T07:24:38.503Z,23.32
2022-08-12T07:25:41.458Z,23.44
2022-08-12T07:26:38.495Z,23.34
2022-08-12T07:27:38.487Z,23.41
2022-08-12T07:28:38.486Z,23.37
2022-08-12T07:29:57.897Z,23.56
2022-08-12T07:30:38.478Z,23.47
2022-08-12T07:31:38.471Z,23.49
2022-08-12T07:32:38.472Z,23.62
2022-08-12T07:33:38.466Z,23.72
2022-08-12T07:34:38.462Z,23.79
2022-08-12T07:35:38.456Z,23.79
2022-08-12T07:36:38.455Z,23.75
2022-08-12T07:37:38.449Z,23.86
2022-08-12T07:38:38.446Z,23.81
2022-08-12T07:39:50.657Z,23.78
2022-08-12T07:40:38.440Z,23.75
2022-08-12T07:41:38.434Z,23.90
2022-08-12T07:42:38.538Z,23.89
2022-08-12T07:43:39.203Z,23.87
2022-08-12T07:44:38.447Z,24.00
2022-08-12T07:45:38.417Z,23.84
2022-08-12T07:46:38.416Z,24.04
2022-08-12T07:47:38.410Z,23.92
2022-08-12T07:48:38.410Z,23.92
2022-08-12T07:50:05.493Z,23.87
2022-08-12T07:50:38.402Z,24.09
2022-08-12T07:51:38.394Z,24.15
2022-08-12T07:52:38.659Z,24.19
2022-08-12T07:53:57.532Z,24.16
2022-08-12T07:54:38.385Z,24.14
2022-08-12T07:55:38.379Z,24.34
2022-08-12T07:56:38.388Z,24.24
2022-08-12T07:57:38.373Z,24.29
2022-08-12T07:58:38.369Z,24.27
2022-08-12T07:59:38.364Z,24.44
2022-08-12T08:00:38.363Z,24.60
2022-08-12T08:01:38.466Z,24.75
2022-08-12T08:02:38.362Z,24.79
2022-08-12T08:03:48.893Z,24.79
2022-08-12T08:04:38.349Z,24.83
2022-08-12T08:05:38.344Z,24.90
2022-08-12T08:06:38.342Z,24.80
2022-08-12T08:07:38.337Z,24.89
2022-08-12T08:08:38.334Z,24.83
2022-08-12T08:09:38.381Z,24.79
2022-08-12T08:10:38.330Z,24.87
2022-08-12T08:11:38.326Z,24.86
2022-08-12T08:12:38.322Z,24.82
2022-08-12T08:13:38.318Z,24.80
2022-08-12T08:14:38.315Z,24.74
2022-08-12T08:16:02.036Z,24.74
2022-08-12T08:16:38.310Z,24.79
2022-08-12T08:17:38.304Z,24.74
2022-08-12T08:18:38.319Z,24.80
2022-08-12T08:19:48.527Z,24.92
2022-08-12T08:20:38.296Z,24.82
2022-08-12T08:21:38.291Z,24.70
2022-08-12T08:22:41.484Z,24.79
2022-08-12T08:23:38.285Z,24.79
2022-08-12T08:24:38.284Z,24.92
2022-08-12T08:25:38.281Z,24.89
2022-08-12T08:26:38.278Z,24.87
2022-08-12T08:27:38.274Z,25.02
2022-08-12T08:28:38.272Z,25.01
2022-08-12T08:29:38.266Z,25.01
2022-08-12T08:30:38.287Z,25.02
2022-08-12T08:31:39.801Z,25.08
2022-08-12T08:32:38.297Z,25.11
2022-08-12T08:34:04.907Z,25.08
2022-08-12T08:34:54.395Z,25.14
2022-08-12T08:35:46.807Z,25.09
2022-08-12T08:36:38.247Z,25.08
2022-08-12T08:37:38.243Z,25.12
2022-08-12T08:38:38.243Z,25.07
2022-08-12T08:39:38.286Z,25.12
2022-08-12T08:40:38.234Z,25.22
2022-08-12T08:42:15.825Z,25.36
2022-08-12T08:42:38.227Z,25.29
2022-08-12T08:43:44.067Z,25.24
2022-08-12T08:44:38.452Z,25.36
2022-08-12T08:45:38.217Z,25.23
2022-08-12T08:46:38.462Z,25.22
2022-08-12T08:47:38.211Z,25.31
2022-08-12T08:48:38.211Z,25.36
2022-08-12T08:49:38.207Z,25.38
2022-08-12T08:50:38.204Z,25.48
2022-08-12T08:51:38.201Z,25.46
2022-08-12T08:52:45.650Z,25.56
2022-08-12T08:53:38.195Z,25.69
2022-08-12T08:54:38.194Z,25.66
2022-08-12T08:56:03.582Z,25.66
2022-08-12T08:56:38.188Z,25.69
2022-08-12T08:57:43.035Z,25.69
2022-08-12T08:58:38.183Z,25.64
2022-08-12T08:59:38.178Z,25.59
2022-08-12T09:00:38.176Z,25.71
2022-08-12T09:01:38.596Z,25.71
2022-08-12T09:02:38.169Z,25.78
2022-08-12T09:05:08.691Z,25.72
2022-08-12T09:05:13.457Z,25.76
2022-08-12T09:06:01.590Z,25.85
2022-08-12T09:06:38.312Z,26.01
2022-08-12T09:07:51.765Z,26.06
2022-08-12T09:08:38.154Z,26.04
2022-08-12T09:10:38.352Z,25.83
2022-08-12T09:12:06.517Z,25.76
2022-08-12T09:12:38.143Z,25.83
2022-08-12T09:14:12.093Z,25.86
2022-08-12T09:14:38.137Z,25.86
2022-08-12T09:15:38.134Z,25.72
2022-08-12T09:16:41.535Z,25.83
2022-08-12T09:17:42.145Z,25.85
2022-08-12T09:18:38.128Z,25.83
2022-08-12T09:19:38.127Z,25.81
2022-08-12T09:20:38.125Z,25.93
2022-08-12T09:22:38.121Z,25.85
2022-08-12T09:23:58.492Z,25.86
2022-08-12T09:24:38.114Z,25.86
2022-08-12T09:25:38.111Z,26.06
2022-08-12T09:28:03.804Z,26.04
2022-08-12T09:28:38.105Z,26.21
2022-08-12T09:30:10.308Z,26.20
2022-08-12T09:30:42.166Z,26.27
2022-08-12T09:32:07.460Z,26.27
2022-08-12T09:33:03.861Z,26.24
2022-08-12T09:34:29.011Z,26.23
2022-08-12T09:34:42.327Z,26.11
2022-08-12T09:35:43.165Z,26.06
2022-08-12T09:36:57.773Z,26.04
2022-08-12T09:37:55.178Z,26.04
2022-08-12T09:38:38.080Z,26.00
2022-08-12T09:40:03.304Z,26.03
2022-08-12T09:40:57.135Z,26.08
2022-08-12T09:42:33.815Z,26.00
2022-08-12T09:42:49.226Z,26.06
2022-08-12T09:43:38.137Z,26.17
2022-08-12T09:44:39.991Z,26.27
2022-08-12T09:46:11.333Z,26.20
2022-08-12T09:46:38.168Z,26.12
2022-08-12T09:47:38.057Z,26.20
2022-08-12T09:48:39.276Z,26.11
2022-08-12T09:49:42.305Z,26.13
2022-08-12T09:50:38.052Z,26.17
2022-08-12T09:51:43.546Z,26.12
2022-08-12T09:52:38.048Z,26.31
2022-08-12T09:53:39.521Z,26.39
2022-08-12T09:54:38.127Z,26.50
2022-08-12T09:56:06.219Z,26.53
2022-08-12T09:56:58.400Z,26.57
2022-08-12T09:58:46.633Z,26.59
2022-08-12T09:58:57.944Z,26.61
2022-08-12T10:00:13.820Z,26.69
2022-08-12T10:00:48.361Z,26.81
2022-08-12T10:02:42.675Z,26.93
2022-08-12T10:02:43.307Z,26.87
2022-08-12T10:04:03.336Z,26.75
2022-08-12T10:04:38.091Z,26.69
2022-08-12T10:06:20.163Z,26.84
2022-08-12T10:06:54.029Z,26.88
2022-08-12T10:07:39.601Z,26.93
2022-08-12T10:08:38.014Z,26.96
2022-08-12T10:09:57.186Z,26.78
2022-08-12T10:10:42.476Z,26.73
2022-08-12T10:12:12.111Z,26.75
2022-08-12T10:12:38.004Z,26.97
2022-08-12T10:13:42.849Z,26.97
2022-08-12T10:14:38.001Z,26.93
2022-08-12T10:16:02.180Z,26.97
2022-08-12T10:16:39.582Z,26.91
2022-08-12T10:17:56.776Z,26.84
2022-08-12T10:18:51.170Z,26.96
2022-08-12T10:19:38.113Z,26.98
2022-08-12T10:20:37.988Z,27.03
2022-08-12T10:21:38.083Z,27.05
2022-08-12T10:22:40.267Z,26.98
2022-08-12T10:23:39.755Z,27.01
2022-08-12T10:24:37.982Z,27.06
2022-08-12T10:26:35.368Z,27.12
2022-08-12T10:26:39.415Z,27.12
2022-08-12T10:28:03.816Z,27.13
2022-08-12T10:28:38.167Z,27.08
2022-08-12T10:30:03.245Z,27.08
2022-08-12T10:30:46.948Z,27.11
2022-08-12T10:32:19.869Z,27.09
2022-08-12T10:33:55.631Z,27.09
2022-08-12T10:34:37.960Z,26.96
2022-08-12T10:35:38.562Z,27.06
2022-08-12T10:36:42.657Z,27.15
2022-08-12T10:38:34.508Z,27.25
2022-08-12T10:38:41.164Z,27.28
2022-08-12T10:40:05.665Z,27.38
2022-08-12T10:40:38.151Z,27.65
2022-08-12T10:41:58.339Z,27.69
2022-08-12T10:42:37.947Z,27.65
2022-08-12T10:43:56.525Z,27.55
2022-08-12T10:44:37.943Z,27.68
2022-08-12T10:45:38.322Z,27.71
2022-08-12T10:46:37.941Z,27.77
2022-08-12T10:48:07.028Z,27.72
2022-08-12T10:48:37.939Z,27.74
2022-08-12T10:50:05.776Z,27.71
2022-08-12T10:51:00.805Z,27.76
2022-08-12T10:51:56.512Z,27.81
2022-08-12T10:52:38.387Z,27.84
2022-08-12T10:53:44.510Z,27.81
2022-08-12T10:54:37.930Z,27.83
2022-08-12T10:55:37.930Z,27.87
2022-08-12T10:56:37.929Z,27.84
2022-08-12T10:58:14.096Z,27.83
2022-08-12T10:58:37.924Z,27.81
2022-08-12T11:00:03.797Z,27.69
2022-08-12T11:00:55.608Z,27.66
2022-08-12T11:04:19.351Z,27.52
2022-08-12T11:04:23.066Z,27.65
2022-08-12T11:04:31.296Z,27.71
2022-08-12T11:04:49.186Z,27.68
2022-08-12T11:07:07.262Z,27.78
2022-08-12T11:07:09.475Z,27.81
2022-08-12T11:08:34.275Z,27.74
2022-08-12T11:08:42.393Z,27.59
2022-08-12T11:09:56.109Z,27.69
2022-08-12T11:10:37.978Z,27.71
2022-08-12T11:12:36.727Z,27.81
2022-08-12T11:12:59.929Z,27.86
2022-08-12T11:13:45.869Z,27.74
2022-08-12T11:14:49.591Z,27.84
2022-08-12T11:16:03.239Z,27.88
2022-08-12T11:16:37.905Z,27.83
2022-08-12T11:17:52.196Z,27.88
2022-08-12T11:18:37.906Z,27.83
2022-08-12T11:19:37.904Z,27.84
2022-08-12T11:20:37.902Z,27.90
2022-08-12T11:21:58.288Z,27.98
2022-08-12T11:22:37.901Z,28.05
2022-08-12T11:23:37.948Z,28.08
2022-08-12T11:24:37.895Z,28.20
2022-08-12T11:25:55.709Z,28.25
2022-08-12T11:26:37.894Z,28.35
2022-08-12T11:27:37.897Z,28.32
2022-08-12T11:28:38.504Z,28.42
2022-08-12T11:30:02.061Z,28.42
2022-08-12T11:30:37.890Z,28.52
2022-08-12T11:31:55.826Z,28.57
2022-08-12T11:32:38.783Z,28.51
2022-08-12T11:34:04.361Z,28.60
2022-08-12T11:34:52.564Z,28.52
2022-08-12T11:35:37.883Z,28.38
2022-08-12T11:36:39.309Z,28.42
2022-08-12T11:37:58.989Z,28.36
2022-08-12T11:38:37.854Z,28.24
2022-08-12T11:40:37.861Z,28.35
2022-08-12T11:41:37.851Z,28.39
2022-08-12T11:42:39.656Z,28.42
2022-08-12T11:43:50.765Z,28.42
2022-08-12T11:44:43.120Z,28.48
2022-08-12T11:45:39.074Z,28.55
2022-08-12T11:46:37.850Z,28.58
2022-08-12T11:47:40.199Z,28.61
2022-08-12T11:48:52.271Z,28.50
2022-08-12T11:49:37.850Z,28.39
2022-08-12T11:50:42.092Z,28.42
2022-08-12T11:51:39.806Z,28.46
2022-08-12T11:52:56.740Z,28.48
2022-08-12T11:53:57.497Z,28.46
2022-08-12T11:54:37.849Z,28.42
2022-08-12T11:55:46.659Z,28.27
2022-08-12T11:56:38.525Z,28.28
2022-08-12T11:58:09.466Z,28.40
2022-08-12T12:01:58.932Z,28.38
2022-08-12T12:02:01.073Z,28.51
2022-08-12T12:02:03.197Z,28.42
2022-08-12T12:02:37.862Z,28.27
2022-08-12T12:03:41.590Z,28.45
2022-08-12T12:04:37.847Z,28.45
2022-08-12T12:05:39.820Z,28.40
2022-08-12T12:06:37.846Z,28.46
2022-08-12T12:08:37.638Z,28.54
2022-08-12T12:08:42.665Z,28.58
2022-08-12T12:09:51.802Z,28.50
2022-08-12T12:10:37.845Z,28.45
2022-08-12T12:11:39.102Z,28.55
2022-08-12T12:12:37.844Z,28.52
2022-08-12T12:14:06.772Z,28.40
2022-08-12T12:14:39.102Z,28.43
2022-08-12T12:15:41.077Z,28.42
2022-08-12T12:16:38.209Z,28.45
2022-08-12T12:17:38.344Z,28.45
2022-08-12T12:18:37.843Z,28.38
2022-08-12T12:19:45.349Z,28.43
2022-08-12T12:20:37.844Z,28.43
2022-08-12T12:21:48.727Z,28.45
2022-08-12T12:22:37.842Z,28.45
2022-08-12T12:23:37.943Z,28.48
2022-08-12T12:24:37.844Z,28.48
2022-08-12T12:26:06.851Z,28.43
2022-08-12T12:26:38.517Z,28.46
2022-08-12T12:28:05.233Z,28.43
2022-08-12T12:28:39.609Z,28.51
2022-08-12T12:30:19.121Z,28.54
2022-08-12T12:30:37.839Z,28.52
2022-08-12T12:32:11.072Z,28.45
2022-08-12T12:32:37.844Z,28.51
2022-08-12T12:33:56.968Z,28.54
2022-08-12T12:34:37.838Z,28.65
2022-08-12T12:36:18.211Z,28.58
2022-08-12T12:36:37.837Z,28.61
2022-08-12T12:38:03.752Z,28.76
2022-08-12T12:38:37.837Z,28.87
2022-08-12T12:39:55.281Z,29.00
2022-08-12T12:40:39.801Z,29.00
2022-08-12T12:42:41.828Z,28.95
2022-08-12T12:42:55.940Z,28.97
2022-08-12T12:43:43.563Z,29.08
2022-08-12T12:44:42.130Z,29.17
2022-08-12T12:45:37.833Z,29.14
2022-08-12T12:46:37.834Z,29.12
2022-08-12T12:47:37.831Z,29.02
2022-08-12T12:48:40.468Z,29.05
2022-08-12T12:49:37.833Z,29.02
2022-08-12T12:50:45.127Z,29.10
2022-08-12T12:51:48.970Z,29.12
2022-08-12T12:52:37.857Z,29.20
2022-08-12T12:54:07.560Z,29.15
2022-08-12T12:54:37.835Z,29.07
2022-08-12T12:55:37.832Z,29.07
2022-08-12T12:56:37.835Z,28.88
2022-08-12T12:58:00.080Z,28.79
2022-08-12T12:58:37.836Z,28.80
2022-08-12T12:59:56.661Z,28.89